sensor_id;sensor_type;location;lat;lon;timestamp;P1;durP1;ratioP1;P2;durP2;ratioP2
10260;SDS011;5175;42.606;23.388;2023-04-19T00:01:24;2.90;;;1.80;;
10260;SDS011;5175;42.606;23.388;2023-04-19T00:03:52;2.60;;;2.20;;
10260;SDS011;5175;42.606;23.388;2023-04-19T00:06:20;2.20;;;2.00;;
10260;SDS011;5175;42.606;23.388;2023-04-19T00:08:48;2.07;;;1.87;;
10260;SDS011;5175;42.606;23.388;2023-04-19T00:11:15;1.93;;;1.70;;
10260;SDS011;5175;42.606;23.388;2023-04-19T00:13:42;2.20;;;1.80;;
10260;SDS011;5175;42.606;23.388;2023-04-19T00:16:09;2.07;;;1.70;;
10260;SDS011;5175;42.606;23.388;2023-04-19T00:18:36;2.47;;;1.87;;
10260;SDS011;5175;42.606;23.388;2023-04-19T00:21:04;2.00;;;1.77;;
10260;SDS011;5175;42.606;23.388;2023-04-19T00:23:31;2.50;;;2.00;;
10260;SDS011;5175;42.606;23.388;2023-04-19T00:25:59;3.67;;;2.10;;
10260;SDS011;5175;42.606;23.388;2023-04-19T00:28:28;2.80;;;2.53;;
10260;SDS011;5175;42.606;23.388;2023-04-19T00:30:54;2.57;;;2.37;;
10260;SDS011;5175;42.606;23.388;2023-04-19T00:33:22;2.40;;;1.93;;
10260;SDS011;5175;42.606;23.388;2023-04-19T00:35:48;3.40;;;2.70;;
10260;SDS011;5175;42.606;23.388;2023-04-19T00:38:15;3.43;;;3.03;;
10260;SDS011;5175;42.606;23.388;2023-04-19T00:40:42;3.47;;;2.67;;
10260;SDS011;5175;42.606;23.388;2023-04-19T00:43:12;4.17;;;2.67;;
10260;SDS011;5175;42.606;23.388;2023-04-19T00:45:42;3.10;;;2.70;;
10260;SDS011;5175;42.606;23.388;2023-04-19T00:48:09;3.10;;;2.80;;
10260;SDS011;5175;42.606;23.388;2023-04-19T00:50:37;4.27;;;3.23;;
10260;SDS011;5175;42.606;23.388;2023-04-19T00:53:04;3.00;;;2.70;;
10260;SDS011;5175;42.606;23.388;2023-04-19T00:55:33;4.00;;;3.10;;
10260;SDS011;5175;42.606;23.388;2023-04-19T00:58:00;3.00;;;2.70;;
10260;SDS011;5175;42.606;23.388;2023-04-19T01:00:29;4.63;;;3.50;;
10260;SDS011;5175;42.606;23.388;2023-04-19T01:02:55;4.23;;;3.57;;
10260;SDS011;5175;42.606;23.388;2023-04-19T01:05:22;3.80;;;3.47;;
10260;SDS011;5175;42.606;23.388;2023-04-19T01:07:49;4.10;;;3.70;;
10260;SDS011;5175;42.606;23.388;2023-04-19T01:10:16;4.03;;;3.37;;
10260;SDS011;5175;42.606;23.388;2023-04-19T01:12:43;4.57;;;4.17;;
10260;SDS011;5175;42.606;23.388;2023-04-19T01:15:10;12.20;;;8.60;;
10260;SDS011;5175;42.606;23.388;2023-04-19T01:17:38;11.93;;;8.70;;
10260;SDS011;5175;42.606;23.388;2023-04-19T01:20:06;6.53;;;5.60;;
10260;SDS011;5175;42.606;23.388;2023-04-19T01:22:35;4.90;;;4.17;;
10260;SDS011;5175;42.606;23.388;2023-04-19T01:25:03;3.70;;;3.13;;
10260;SDS011;5175;42.606;23.388;2023-04-19T01:27:30;4.00;;;3.53;;
10260;SDS011;5175;42.606;23.388;2023-04-19T01:29:57;3.47;;;3.17;;
10260;SDS011;5175;42.606;23.388;2023-04-19T01:32:29;3.20;;;2.90;;
10260;SDS011;5175;42.606;23.388;2023-04-19T01:34:56;3.90;;;3.37;;
10260;SDS011;5175;42.606;23.388;2023-04-19T01:37:23;3.43;;;3.13;;
10260;SDS011;5175;42.606;23.388;2023-04-19T01:39:51;3.53;;;2.90;;
10260;SDS011;5175;42.606;23.388;2023-04-19T01:42:18;3.13;;;2.83;;
10260;SDS011;5175;42.606;23.388;2023-04-19T01:44:47;2.97;;;2.67;;
10260;SDS011;5175;42.606;23.388;2023-04-19T01:47:14;3.27;;;2.63;;
10260;SDS011;5175;42.606;23.388;2023-04-19T01:49:41;2.40;;;2.20;;
10260;SDS011;5175;42.606;23.388;2023-04-19T01:52:08;2.60;;;2.40;;
10260;SDS011;5175;42.606;23.388;2023-04-19T01:54:35;3.73;;;2.60;;
10260;SDS011;5175;42.606;23.388;2023-04-19T01:57:03;2.87;;;2.43;;
10260;SDS011;5175;42.606;23.388;2023-04-19T01:59:30;2.60;;;2.23;;
10260;SDS011;5175;42.606;23.388;2023-04-19T02:01:57;3.23;;;2.70;;
10260;SDS011;5175;42.606;23.388;2023-04-19T02:04:24;2.50;;;2.30;;
10260;SDS011;5175;42.606;23.388;2023-04-19T02:06:51;2.60;;;2.30;;
10260;SDS011;5175;42.606;23.388;2023-04-19T02:09:18;2.73;;;2.30;;
10260;SDS011;5175;42.606;23.388;2023-04-19T02:11:44;2.90;;;2.60;;
10260;SDS011;5175;42.606;23.388;2023-04-19T02:14:13;4.30;;;3.40;;
10260;SDS011;5175;42.606;23.388;2023-04-19T02:16:40;4.47;;;2.80;;
10260;SDS011;5175;42.606;23.388;2023-04-19T02:19:06;3.00;;;2.70;;
10260;SDS011;5175;42.606;23.388;2023-04-19T02:21:33;3.30;;;2.73;;
10260;SDS011;5175;42.606;23.388;2023-04-19T02:24:00;2.87;;;2.33;;
10260;SDS011;5175;42.606;23.388;2023-04-19T02:26:27;3.70;;;2.43;;
10260;SDS011;5175;42.606;23.388;2023-04-19T02:28:54;3.20;;;2.90;;
10260;SDS011;5175;42.606;23.388;2023-04-19T02:31:22;4.47;;;2.97;;
10260;SDS011;5175;42.606;23.388;2023-04-19T02:33:49;4.20;;;2.80;;
10260;SDS011;5175;42.606;23.388;2023-04-19T02:36:18;2.97;;;2.67;;
10260;SDS011;5175;42.606;23.388;2023-04-19T02:38:45;2.60;;;2.40;;
10260;SDS011;5175;42.606;23.388;2023-04-19T02:41:12;3.17;;;2.43;;
10260;SDS011;5175;42.606;23.388;2023-04-19T02:43:38;3.07;;;2.20;;
10260;SDS011;5175;42.606;23.388;2023-04-19T02:46:05;4.50;;;2.43;;
10260;SDS011;5175;42.606;23.388;2023-04-19T02:48:34;3.93;;;2.67;;
10260;SDS011;5175;42.606;23.388;2023-04-19T02:51:00;2.80;;;2.47;;
10260;SDS011;5175;42.606;23.388;2023-04-19T02:53:27;3.43;;;2.70;;
10260;SDS011;5175;42.606;23.388;2023-04-19T02:55:54;4.17;;;3.07;;
10260;SDS011;5175;42.606;23.388;2023-04-19T02:58:21;2.80;;;2.60;;
10260;SDS011;5175;42.606;23.388;2023-04-19T03:00:48;3.20;;;2.90;;
10260;SDS011;5175;42.606;23.388;2023-04-19T03:03:15;4.57;;;3.20;;
10260;SDS011;5175;42.606;23.388;2023-04-19T03:05:43;4.67;;;3.03;;
10260;SDS011;5175;42.606;23.388;2023-04-19T03:08:10;3.73;;;3.43;;
10260;SDS011;5175;42.606;23.388;2023-04-19T03:10:37;3.33;;;3.03;;
10260;SDS011;5175;42.606;23.388;2023-04-19T03:13:03;4.07;;;3.77;;
10260;SDS011;5175;42.606;23.388;2023-04-19T03:15:30;4.43;;;4.03;;
10260;SDS011;5175;42.606;23.388;2023-04-19T03:17:57;4.60;;;4.10;;
10260;SDS011;5175;42.606;23.388;2023-04-19T03:20:24;4.13;;;3.43;;
10260;SDS011;5175;42.606;23.388;2023-04-19T03:22:52;4.43;;;3.37;;
10260;SDS011;5175;42.606;23.388;2023-04-19T03:25:19;4.03;;;3.60;;
10260;SDS011;5175;42.606;23.388;2023-04-19T03:27:46;4.10;;;3.70;;
10260;SDS011;5175;42.606;23.388;2023-04-19T03:30:15;4.00;;;3.60;;
10260;SDS011;5175;42.606;23.388;2023-04-19T03:32:42;4.37;;;3.90;;
10260;SDS011;5175;42.606;23.388;2023-04-19T03:35:09;4.43;;;3.63;;
10260;SDS011;5175;42.606;23.388;2023-04-19T03:37:36;4.03;;;3.37;;
10260;SDS011;5175;42.606;23.388;2023-04-19T03:40:05;4.77;;;4.27;;
10260;SDS011;5175;42.606;23.388;2023-04-19T03:42:32;5.27;;;4.23;;
10260;SDS011;5175;42.606;23.388;2023-04-19T03:44:59;5.60;;;4.37;;
10260;SDS011;5175;42.606;23.388;2023-04-19T03:47:26;4.87;;;4.37;;
10260;SDS011;5175;42.606;23.388;2023-04-19T03:49:53;5.20;;;4.70;;
10260;SDS011;5175;42.606;23.388;2023-04-19T03:52:22;5.37;;;4.87;;
10260;SDS011;5175;42.606;23.388;2023-04-19T03:54:50;6.60;;;4.63;;
10260;SDS011;5175;42.606;23.388;2023-04-19T03:57:18;7.17;;;5.23;;
10260;SDS011;5175;42.606;23.388;2023-04-19T03:59:45;5.53;;;5.00;;
10260;SDS011;5175;42.606;23.388;2023-04-19T04:02:11;7.43;;;4.90;;
10260;SDS011;5175;42.606;23.388;2023-04-19T04:04:38;5.17;;;4.67;;
10260;SDS011;5175;42.606;23.388;2023-04-19T04:07:05;6.70;;;4.60;;
10260;SDS011;5175;42.606;23.388;2023-04-19T04:09:32;5.20;;;4.47;;
10260;SDS011;5175;42.606;23.388;2023-04-19T04:11:58;4.93;;;4.43;;
10260;SDS011;5175;42.606;23.388;2023-04-19T04:14:27;5.03;;;4.20;;
10260;SDS011;5175;42.606;23.388;2023-04-19T04:16:53;4.80;;;4.40;;
10260;SDS011;5175;42.606;23.388;2023-04-19T04:19:20;7.37;;;4.50;;
10260;SDS011;5175;42.606;23.388;2023-04-19T04:21:47;5.83;;;4.53;;
10260;SDS011;5175;42.606;23.388;2023-04-19T04:24:14;6.33;;;4.80;;
10260;SDS011;5175;42.606;23.388;2023-04-19T04:26:41;5.23;;;4.73;;
10260;SDS011;5175;42.606;23.388;2023-04-19T04:29:08;5.83;;;4.13;;
10260;SDS011;5175;42.606;23.388;2023-04-19T04:31:36;5.40;;;4.00;;
10260;SDS011;5175;42.606;23.388;2023-04-19T04:34:03;5.10;;;4.60;;
10260;SDS011;5175;42.606;23.388;2023-04-19T04:36:30;5.03;;;4.47;;
10260;SDS011;5175;42.606;23.388;2023-04-19T04:38:57;5.50;;;4.73;;
10260;SDS011;5175;42.606;23.388;2023-04-19T04:41:25;5.07;;;4.60;;
10260;SDS011;5175;42.606;23.388;2023-04-19T04:43:55;5.23;;;4.60;;
10260;SDS011;5175;42.606;23.388;2023-04-19T04:46:22;5.10;;;4.27;;
10260;SDS011;5175;42.606;23.388;2023-04-19T04:48:50;4.73;;;4.33;;
10260;SDS011;5175;42.606;23.388;2023-04-19T04:51:18;4.60;;;4.20;;
10260;SDS011;5175;42.606;23.388;2023-04-19T04:53:45;7.30;;;4.60;;
10260;SDS011;5175;42.606;23.388;2023-04-19T04:56:11;5.10;;;4.60;;
10260;SDS011;5175;42.606;23.388;2023-04-19T04:58:38;4.60;;;4.00;;
10260;SDS011;5175;42.606;23.388;2023-04-19T05:01:05;4.70;;;4.30;;
10260;SDS011;5175;42.606;23.388;2023-04-19T05:03:32;5.03;;;4.60;;
10260;SDS011;5175;42.606;23.388;2023-04-19T05:06:00;5.57;;;4.87;;
10260;SDS011;5175;42.606;23.388;2023-04-19T05:08:27;5.00;;;4.50;;
10260;SDS011;5175;42.606;23.388;2023-04-19T05:10:53;4.60;;;4.20;;
10260;SDS011;5175;42.606;23.388;2023-04-19T05:13:20;5.23;;;4.73;;
10260;SDS011;5175;42.606;23.388;2023-04-19T05:15:47;4.93;;;4.40;;
10260;SDS011;5175;42.606;23.388;2023-04-19T05:18:14;5.47;;;4.97;;
10260;SDS011;5175;42.606;23.388;2023-04-19T05:20:41;4.63;;;4.23;;
10260;SDS011;5175;42.606;23.388;2023-04-19T05:23:09;6.23;;;4.60;;
10260;SDS011;5175;42.606;23.388;2023-04-19T05:25:36;5.43;;;4.90;;
10260;SDS011;5175;42.606;23.388;2023-04-19T05:28:03;5.10;;;4.60;;
10260;SDS011;5175;42.606;23.388;2023-04-19T05:30:30;5.90;;;5.20;;
10260;SDS011;5175;42.606;23.388;2023-04-19T05:32:57;5.47;;;4.20;;
10260;SDS011;5175;42.606;23.388;2023-04-19T05:35:23;4.50;;;3.87;;
10260;SDS011;5175;42.606;23.388;2023-04-19T05:37:50;6.57;;;4.10;;
10260;SDS011;5175;42.606;23.388;2023-04-19T05:40:18;4.60;;;4.20;;
10260;SDS011;5175;42.606;23.388;2023-04-19T05:42:47;4.43;;;4.03;;
10260;SDS011;5175;42.606;23.388;2023-04-19T05:45:17;4.60;;;4.20;;
10260;SDS011;5175;42.606;23.388;2023-04-19T05:47:44;4.73;;;4.33;;
10260;SDS011;5175;42.606;23.388;2023-04-19T05:50:11;5.23;;;4.73;;
10260;SDS011;5175;42.606;23.388;2023-04-19T05:52:39;6.63;;;3.47;;
10260;SDS011;5175;42.606;23.388;2023-04-19T05:55:06;4.40;;;4.00;;
10260;SDS011;5175;42.606;23.388;2023-04-19T05:57:35;4.67;;;4.00;;
10260;SDS011;5175;42.606;23.388;2023-04-19T06:00:02;4.87;;;4.37;;
10260;SDS011;5175;42.606;23.388;2023-04-19T06:02:30;4.60;;;4.20;;
10260;SDS011;5175;42.606;23.388;2023-04-19T06:04:56;6.03;;;4.37;;
10260;SDS011;5175;42.606;23.388;2023-04-19T06:07:23;6.00;;;5.40;;
10260;SDS011;5175;42.606;23.388;2023-04-19T06:09:50;6.43;;;4.73;;
10260;SDS011;5175;42.606;23.388;2023-04-19T06:12:17;6.60;;;5.23;;
10260;SDS011;5175;42.606;23.388;2023-04-19T06:14:45;4.67;;;4.27;;
10260;SDS011;5175;42.606;23.388;2023-04-19T06:17:12;4.90;;;4.40;;
10260;SDS011;5175;42.606;23.388;2023-04-19T06:19:40;4.80;;;4.40;;
10260;SDS011;5175;42.606;23.388;2023-04-19T06:22:07;6.67;;;4.70;;
10260;SDS011;5175;42.606;23.388;2023-04-19T06:24:34;3.63;;;3.10;;
10260;SDS011;5175;42.606;23.388;2023-04-19T06:27:00;4.60;;;4.00;;
10260;SDS011;5175;42.606;23.388;2023-04-19T06:29:27;4.20;;;3.80;;
10260;SDS011;5175;42.606;23.388;2023-04-19T06:31:55;4.33;;;3.97;;
10260;SDS011;5175;42.606;23.388;2023-04-19T06:34:22;7.43;;;4.73;;
10260;SDS011;5175;42.606;23.388;2023-04-19T06:36:49;5.63;;;4.50;;
10260;SDS011;5175;42.606;23.388;2023-04-19T06:39:16;6.00;;;4.53;;
10260;SDS011;5175;42.606;23.388;2023-04-19T06:41:43;5.43;;;4.30;;
10260;SDS011;5175;42.606;23.388;2023-04-19T06:44:10;4.60;;;4.20;;
10260;SDS011;5175;42.606;23.388;2023-04-19T06:46:37;4.60;;;4.20;;
10260;SDS011;5175;42.606;23.388;2023-04-19T06:49:05;4.73;;;4.27;;
10260;SDS011;5175;42.606;23.388;2023-04-19T06:51:32;6.60;;;4.10;;
10260;SDS011;5175;42.606;23.388;2023-04-19T06:53:59;3.43;;;3.00;;
10260;SDS011;5175;42.606;23.388;2023-04-19T06:56:38;3.87;;;3.47;;
10260;SDS011;5175;42.606;23.388;2023-04-19T06:59:09;6.10;;;3.63;;
10260;SDS011;5175;42.606;23.388;2023-04-19T07:01:36;4.70;;;4.20;;
10260;SDS011;5175;42.606;23.388;2023-04-19T07:04:04;5.23;;;3.90;;
10260;SDS011;5175;42.606;23.388;2023-04-19T07:06:33;5.50;;;4.07;;
10260;SDS011;5175;42.606;23.388;2023-04-19T07:08:59;6.33;;;4.30;;
10260;SDS011;5175;42.606;23.388;2023-04-19T07:11:27;4.80;;;4.13;;
10260;SDS011;5175;42.606;23.388;2023-04-19T07:13:53;4.90;;;4.23;;
10260;SDS011;5175;42.606;23.388;2023-04-19T07:16:20;4.80;;;4.40;;
10260;SDS011;5175;42.606;23.388;2023-04-19T07:18:47;6.03;;;4.07;;
10260;SDS011;5175;42.606;23.388;2023-04-19T07:21:15;5.23;;;3.87;;
10260;SDS011;5175;42.606;23.388;2023-04-19T07:23:42;4.10;;;3.70;;
10260;SDS011;5175;42.606;23.388;2023-04-19T07:26:09;3.40;;;3.10;;
10260;SDS011;5175;42.606;23.388;2023-04-19T07:28:37;5.47;;;3.63;;
10260;SDS011;5175;42.606;23.388;2023-04-19T07:31:04;4.43;;;3.27;;
10260;SDS011;5175;42.606;23.388;2023-04-19T07:33:31;3.37;;;3.07;;
10260;SDS011;5175;42.606;23.388;2023-04-19T07:35:58;9.57;;;7.13;;
10260;SDS011;5175;42.606;23.388;2023-04-19T07:38:27;4.93;;;3.30;;
10260;SDS011;5175;42.606;23.388;2023-04-19T07:40:54;3.80;;;3.00;;
10260;SDS011;5175;42.606;23.388;2023-04-19T07:43:20;5.60;;;3.57;;
10260;SDS011;5175;42.606;23.388;2023-04-19T07:45:47;3.20;;;2.90;;
10260;SDS011;5175;42.606;23.388;2023-04-19T07:48:14;4.00;;;3.27;;
10260;SDS011;5175;42.606;23.388;2023-04-19T07:50:41;3.17;;;2.90;;
10260;SDS011;5175;42.606;23.388;2023-04-19T07:53:08;3.97;;;3.60;;
10260;SDS011;5175;42.606;23.388;2023-04-19T07:55:36;3.43;;;3.10;;
10260;SDS011;5175;42.606;23.388;2023-04-19T07:58:03;3.90;;;3.50;;
10260;SDS011;5175;42.606;23.388;2023-04-19T08:00:29;4.97;;;4.07;;
10260;SDS011;5175;42.606;23.388;2023-04-19T08:02:58;4.90;;;3.80;;
10260;SDS011;5175;42.606;23.388;2023-04-19T08:05:25;6.17;;;4.07;;
10260;SDS011;5175;42.606;23.388;2023-04-19T08:07:52;4.53;;;3.37;;
10260;SDS011;5175;42.606;23.388;2023-04-19T08:10:19;3.90;;;3.47;;
10260;SDS011;5175;42.606;23.388;2023-04-19T08:12:47;3.60;;;3.30;;
10260;SDS011;5175;42.606;23.388;2023-04-19T08:15:15;4.20;;;3.30;;
10260;SDS011;5175;42.606;23.388;2023-04-19T08:17:42;4.37;;;3.40;;
10260;SDS011;5175;42.606;23.388;2023-04-19T08:20:09;3.50;;;3.20;;
10260;SDS011;5175;42.606;23.388;2023-04-19T08:22:37;3.90;;;3.50;;
10260;SDS011;5175;42.606;23.388;2023-04-19T08:25:06;4.03;;;3.40;;
10260;SDS011;5175;42.606;23.388;2023-04-19T08:27:34;3.23;;;2.90;;
10260;SDS011;5175;42.606;23.388;2023-04-19T08:30:03;3.23;;;2.93;;
10260;SDS011;5175;42.606;23.388;2023-04-19T08:32:31;4.10;;;3.53;;
10260;SDS011;5175;42.606;23.388;2023-04-19T08:34:58;3.70;;;3.37;;
10260;SDS011;5175;42.606;23.388;2023-04-19T08:37:26;3.47;;;3.17;;
10260;SDS011;5175;42.606;23.388;2023-04-19T08:39:52;4.20;;;3.53;;
10260;SDS011;5175;42.606;23.388;2023-04-19T08:42:19;5.83;;;3.80;;
10260;SDS011;5175;42.606;23.388;2023-04-19T08:44:46;5.57;;;3.33;;
10260;SDS011;5175;42.606;23.388;2023-04-19T08:47:15;4.23;;;3.60;;
10260;SDS011;5175;42.606;23.388;2023-04-19T08:49:42;3.90;;;3.50;;
10260;SDS011;5175;42.606;23.388;2023-04-19T08:52:11;3.80;;;3.40;;
10260;SDS011;5175;42.606;23.388;2023-04-19T08:54:39;4.77;;;3.57;;
10260;SDS011;5175;42.606;23.388;2023-04-19T08:57:06;3.97;;;3.57;;
10260;SDS011;5175;42.606;23.388;2023-04-19T08:59:34;4.57;;;3.40;;
10260;SDS011;5175;42.606;23.388;2023-04-19T09:02:01;3.63;;;3.27;;
10260;SDS011;5175;42.606;23.388;2023-04-19T09:04:29;4.50;;;3.60;;
10260;SDS011;5175;42.606;23.388;2023-04-19T09:06:56;4.03;;;3.20;;
10260;SDS011;5175;42.606;23.388;2023-04-19T09:09:24;4.60;;;2.90;;
10260;SDS011;5175;42.606;23.388;2023-04-19T09:11:52;5.90;;;3.07;;
10260;SDS011;5175;42.606;23.388;2023-04-19T09:14:20;3.70;;;3.07;;
10260;SDS011;5175;42.606;23.388;2023-04-19T09:16:47;4.50;;;3.43;;
10260;SDS011;5175;42.606;23.388;2023-04-19T09:19:17;3.10;;;2.60;;
10260;SDS011;5175;42.606;23.388;2023-04-19T09:21:45;3.50;;;3.20;;
10260;SDS011;5175;42.606;23.388;2023-04-19T09:24:15;3.40;;;3.10;;
10260;SDS011;5175;42.606;23.388;2023-04-19T09:26:43;3.50;;;3.03;;
10260;SDS011;5175;42.606;23.388;2023-04-19T09:29:20;3.20;;;2.90;;
10260;SDS011;5175;42.606;23.388;2023-04-19T09:31:55;3.40;;;2.83;;
10260;SDS011;5175;42.606;23.388;2023-04-19T09:34:23;3.93;;;3.33;;
10260;SDS011;5175;42.606;23.388;2023-04-19T09:36:54;4.27;;;3.47;;
10260;SDS011;5175;42.606;23.388;2023-04-19T09:39:27;4.17;;;3.77;;
10260;SDS011;5175;42.606;23.388;2023-04-19T09:41:55;3.43;;;3.13;;
10260;SDS011;5175;42.606;23.388;2023-04-19T09:44:22;3.90;;;3.50;;
10260;SDS011;5175;42.606;23.388;2023-04-19T09:46:49;3.90;;;3.40;;
10260;SDS011;5175;42.606;23.388;2023-04-19T09:49:17;3.10;;;2.80;;
10260;SDS011;5175;42.606;23.388;2023-04-19T09:51:45;3.80;;;3.23;;
10260;SDS011;5175;42.606;23.388;2023-04-19T09:54:15;3.10;;;2.80;;
10260;SDS011;5175;42.606;23.388;2023-04-19T09:56:43;3.40;;;2.73;;
10260;SDS011;5175;42.606;23.388;2023-04-19T09:59:11;4.07;;;2.50;;
10260;SDS011;5175;42.606;23.388;2023-04-19T10:01:41;5.17;;;2.80;;
10260;SDS011;5175;42.606;23.388;2023-04-19T10:04:09;2.63;;;2.43;;
10260;SDS011;5175;42.606;23.388;2023-04-19T10:06:46;3.30;;;3.00;;
10260;SDS011;5175;42.606;23.388;2023-04-19T10:09:14;5.63;;;3.20;;
10260;SDS011;5175;42.606;23.388;2023-04-19T10:11:43;3.97;;;2.90;;
10260;SDS011;5175;42.606;23.388;2023-04-19T10:14:14;3.10;;;2.80;;
10260;SDS011;5175;42.606;23.388;2023-04-19T10:16:41;3.90;;;3.00;;
10260;SDS011;5175;42.606;23.388;2023-04-19T10:19:09;3.13;;;2.57;;
10260;SDS011;5175;42.606;23.388;2023-04-19T10:21:37;4.37;;;2.73;;
10260;SDS011;5175;42.606;23.388;2023-04-19T10:24:07;2.63;;;2.43;;
10260;SDS011;5175;42.606;23.388;2023-04-19T10:29:54;3.00;;;2.73;;
10260;SDS011;5175;42.606;23.388;2023-04-19T10:32:21;3.03;;;2.30;;
10260;SDS011;5175;42.606;23.388;2023-04-19T10:34:50;2.87;;;2.63;;
10260;SDS011;5175;42.606;23.388;2023-04-19T10:37:20;4.20;;;2.90;;
10260;SDS011;5175;42.606;23.388;2023-04-19T10:39:48;3.77;;;3.00;;
10260;SDS011;5175;42.606;23.388;2023-04-19T10:42:17;2.73;;;2.50;;
10260;SDS011;5175;42.606;23.388;2023-04-19T10:47:55;2.77;;;1.90;;
10260;SDS011;5175;42.606;23.388;2023-04-19T10:50:22;2.60;;;2.40;;
10260;SDS011;5175;42.606;23.388;2023-04-19T10:52:50;2.40;;;2.20;;
10260;SDS011;5175;42.606;23.388;2023-04-19T10:55:17;3.23;;;2.57;;
10260;SDS011;5175;42.606;23.388;2023-04-19T10:58:01;4.10;;;2.80;;
10260;SDS011;5175;42.606;23.388;2023-04-19T11:00:30;4.77;;;2.80;;
10260;SDS011;5175;42.606;23.388;2023-04-19T11:02:59;4.43;;;2.73;;
10260;SDS011;5175;42.606;23.388;2023-04-19T11:06:15;4.07;;;2.60;;
10260;SDS011;5175;42.606;23.388;2023-04-19T11:08:43;3.27;;;2.60;;
10260;SDS011;5175;42.606;23.388;2023-04-19T11:11:11;2.80;;;2.53;;
10260;SDS011;5175;42.606;23.388;2023-04-19T11:13:41;2.20;;;2.00;;
10260;SDS011;5175;42.606;23.388;2023-04-19T11:16:09;3.67;;;2.70;;
10260;SDS011;5175;42.606;23.388;2023-04-19T11:18:36;2.30;;;2.10;;
10260;SDS011;5175;42.606;23.388;2023-04-19T11:21:02;2.60;;;2.40;;
10260;SDS011;5175;42.606;23.388;2023-04-19T11:23:30;3.37;;;2.40;;
10260;SDS011;5175;42.606;23.388;2023-04-19T11:25:57;3.57;;;2.70;;
10260;SDS011;5175;42.606;23.388;2023-04-19T11:28:24;2.80;;;2.60;;
10260;SDS011;5175;42.606;23.388;2023-04-19T11:30:52;2.83;;;2.33;;
10260;SDS011;5175;42.606;23.388;2023-04-19T11:33:20;3.83;;;2.63;;
10260;SDS011;5175;42.606;23.388;2023-04-19T11:35:49;2.67;;;2.47;;
10260;SDS011;5175;42.606;23.388;2023-04-19T11:38:16;3.45;;;2.47;;
10260;SDS011;5175;42.606;23.388;2023-04-19T11:40:43;3.83;;;2.90;;
10260;SDS011;5175;42.606;23.388;2023-04-19T11:43:10;3.65;;;2.70;;
10260;SDS011;5175;42.606;23.388;2023-04-19T11:45:37;2.70;;;2.50;;
10260;SDS011;5175;42.606;23.388;2023-04-19T11:48:06;2.65;;;2.40;;
10260;SDS011;5175;42.606;23.388;2023-04-19T11:50:39;2.15;;;1.95;;
10260;SDS011;5175;42.606;23.388;2023-04-19T11:53:11;2.58;;;2.25;;
10260;SDS011;5175;42.606;23.388;2023-04-19T11:55:41;2.60;;;2.40;;
10260;SDS011;5175;42.606;23.388;2023-04-19T11:58:19;3.03;;;2.30;;
10260;SDS011;5175;42.606;23.388;2023-04-19T12:00:49;2.63;;;2.28;;
10260;SDS011;5175;42.606;23.388;2023-04-19T12:03:17;2.50;;;2.30;;
10260;SDS011;5175;42.606;23.388;2023-04-19T12:05:51;3.17;;;2.88;;
10260;SDS011;5175;42.606;23.388;2023-04-19T12:08:28;2.65;;;2.45;;
10260;SDS011;5175;42.606;23.388;2023-04-19T12:10:56;2.20;;;2.00;;
10260;SDS011;5175;42.606;23.388;2023-04-19T12:13:24;3.15;;;2.22;;
10260;SDS011;5175;42.606;23.388;2023-04-19T12:15:51;1.90;;;1.80;;
10260;SDS011;5175;42.606;23.388;2023-04-19T12:18:19;3.88;;;2.00;;
10260;SDS011;5175;42.606;23.388;2023-04-19T12:20:46;1.83;;;1.70;;
10260;SDS011;5175;42.606;23.388;2023-04-19T12:23:14;2.22;;;2.03;;
10260;SDS011;5175;42.606;23.388;2023-04-19T12:25:43;3.55;;;1.90;;
10260;SDS011;5175;42.606;23.388;2023-04-19T12:28:11;1.85;;;1.58;;
10260;SDS011;5175;42.606;23.388;2023-04-19T12:30:38;2.53;;;1.50;;
10260;SDS011;5175;42.606;23.388;2023-04-19T12:33:05;2.25;;;1.60;;
10260;SDS011;5175;42.606;23.388;2023-04-19T12:35:34;2.08;;;1.85;;
10260;SDS011;5175;42.606;23.388;2023-04-19T12:38:02;2.28;;;1.60;;
10260;SDS011;5175;42.606;23.388;2023-04-19T12:40:29;1.67;;;1.58;;
10260;SDS011;5175;42.606;23.388;2023-04-19T12:42:56;2.50;;;2.30;;
10260;SDS011;5175;42.606;23.388;2023-04-19T12:45:24;3.25;;;2.53;;
10260;SDS011;5175;42.606;23.388;2023-04-19T12:47:51;2.97;;;2.15;;
10260;SDS011;5175;42.606;23.388;2023-04-19T12:50:17;3.92;;;2.20;;
10260;SDS011;5175;42.606;23.388;2023-04-19T12:52:46;2.22;;;1.98;;
10260;SDS011;5175;42.606;23.388;2023-04-19T12:55:13;3.15;;;2.30;;
10260;SDS011;5175;42.606;23.388;2023-04-19T12:57:40;3.33;;;2.33;;
10260;SDS011;5175;42.606;23.388;2023-04-19T13:00:07;1.90;;;1.80;;
10260;SDS011;5175;42.606;23.388;2023-04-19T13:02:36;2.08;;;1.90;;
10260;SDS011;5175;42.606;23.388;2023-04-19T13:05:03;3.08;;;2.05;;
10260;SDS011;5175;42.606;23.388;2023-04-19T13:07:31;1.60;;;1.50;;
10260;SDS011;5175;42.606;23.388;2023-04-19T13:09:59;2.53;;;2.00;;
10260;SDS011;5175;42.606;23.388;2023-04-19T13:12:27;2.40;;;2.20;;
10260;SDS011;5175;42.606;23.388;2023-04-19T13:14:54;2.80;;;2.03;;
10260;SDS011;5175;42.606;23.388;2023-04-19T13:17:21;3.30;;;2.10;;
10260;SDS011;5175;42.606;23.388;2023-04-19T13:19:47;2.30;;;2.00;;
10260;SDS011;5175;42.606;23.388;2023-04-19T13:22:15;3.75;;;1.95;;
10260;SDS011;5175;42.606;23.388;2023-04-19T13:24:42;2.92;;;2.33;;
10260;SDS011;5175;42.606;23.388;2023-04-19T13:27:10;2.60;;;2.40;;
10260;SDS011;5175;42.606;23.388;2023-04-19T13:29:37;3.38;;;2.45;;
10260;SDS011;5175;42.606;23.388;2023-04-19T13:32:04;4.45;;;2.83;;
10260;SDS011;5175;42.606;23.388;2023-04-19T13:34:36;2.40;;;2.20;;
10260;SDS011;5175;42.606;23.388;2023-04-19T13:37:03;2.70;;;2.37;;
10260;SDS011;5175;42.606;23.388;2023-04-19T13:39:30;3.30;;;1.90;;
10260;SDS011;5175;42.606;23.388;2023-04-19T13:41:57;2.43;;;1.80;;
10260;SDS011;5175;42.606;23.388;2023-04-19T13:44:25;2.63;;;1.60;;
10260;SDS011;5175;42.606;23.388;2023-04-19T13:46:52;2.20;;;1.90;;
10260;SDS011;5175;42.606;23.388;2023-04-19T13:49:19;1.77;;;1.67;;
10260;SDS011;5175;42.606;23.388;2023-04-19T13:51:45;2.07;;;1.70;;
10260;SDS011;5175;42.606;23.388;2023-04-19T13:54:12;1.80;;;1.70;;
10260;SDS011;5175;42.606;23.388;2023-04-19T13:56:41;1.70;;;1.60;;
10260;SDS011;5175;42.606;23.388;2023-04-19T13:59:08;2.10;;;1.90;;
10260;SDS011;5175;42.606;23.388;2023-04-19T14:01:36;2.00;;;1.80;;
10260;SDS011;5175;42.606;23.388;2023-04-19T14:04:03;2.57;;;2.10;;
10260;SDS011;5175;42.606;23.388;2023-04-19T14:06:30;3.17;;;2.20;;
10260;SDS011;5175;42.606;23.388;2023-04-19T14:08:57;4.33;;;3.30;;
10260;SDS011;5175;42.606;23.388;2023-04-19T14:11:24;2.47;;;2.00;;
10260;SDS011;5175;42.606;23.388;2023-04-19T14:13:51;3.23;;;2.00;;
10260;SDS011;5175;42.606;23.388;2023-04-19T14:16:18;2.30;;;1.90;;
10260;SDS011;5175;42.606;23.388;2023-04-19T14:18:49;2.37;;;1.80;;
10260;SDS011;5175;42.606;23.388;2023-04-19T14:21:16;2.97;;;2.10;;
10260;SDS011;5175;42.606;23.388;2023-04-19T14:23:43;2.90;;;2.07;;
10260;SDS011;5175;42.606;23.388;2023-04-19T14:26:10;3.53;;;2.20;;
10260;SDS011;5175;42.606;23.388;2023-04-19T14:28:36;2.33;;;2.13;;
10260;SDS011;5175;42.606;23.388;2023-04-19T14:31:03;2.42;;;2.22;;
10260;SDS011;5175;42.606;23.388;2023-04-19T14:33:30;3.90;;;2.22;;
10260;SDS011;5175;42.606;23.388;2023-04-19T14:35:58;2.15;;;1.95;;
10260;SDS011;5175;42.606;23.388;2023-04-19T14:38:26;2.65;;;2.45;;
10260;SDS011;5175;42.606;23.388;2023-04-19T14:40:53;3.45;;;2.17;;
10260;SDS011;5175;42.606;23.388;2023-04-19T14:43:22;3.13;;;2.20;;
10260;SDS011;5175;42.606;23.388;2023-04-19T14:45:49;2.47;;;2.27;;
10260;SDS011;5175;42.606;23.388;2023-04-19T14:48:16;2.83;;;2.30;;
10260;SDS011;5175;42.606;23.388;2023-04-19T14:50:43;3.08;;;2.30;;
10260;SDS011;5175;42.606;23.388;2023-04-19T14:53:12;3.40;;;2.42;;
10260;SDS011;5175;42.606;23.388;2023-04-19T14:55:39;2.42;;;2.22;;
10260;SDS011;5175;42.606;23.388;2023-04-19T14:58:05;3.55;;;2.45;;